sensor_id;sensor_type;location;lat;lon;timestamp;temperature;humidity
25933;DHT22;13731;51.166;4.474;2023-07-28T00:01:34;18.30;99.90
25933;DHT22;13731;51.166;4.474;2023-07-28T00:03:59;18.30;99.90
25933;DHT22;13731;51.166;4.474;2023-07-28T00:06:25;18.40;99.90
25933;DHT22;13731;51.166;4.474;2023-07-28T00:08:51;18.60;99.90
25933;DHT22;13731;51.166;4.474;2023-07-28T00:11:16;18.70;99.90
25933;DHT22;13731;51.166;4.474;2023-07-28T00:13:42;18.50;99.90
25933;DHT22;13731;51.166;4.474;2023-07-28T00:16:08;18.40;99.90
25933;DHT22;13731;51.166;4.474;2023-07-28T00:18:34;18.20;99.90
25933;DHT22;13731;51.166;4.474;2023-07-28T00:21:00;18.30;99.90
25933;DHT22;13731;51.166;4.474;2023-07-28T00:23:26;18.30;99.90
25933;DHT22;13731;51.166;4.474;2023-07-28T00:25:52;18.20;99.90
25933;DHT22;13731;51.166;4.474;2023-07-28T00:28:17;18.20;99.90
25933;DHT22;13731;51.166;4.474;2023-07-28T00:30:43;18.30;99.90
25933;DHT22;13731;51.166;4.474;2023-07-28T00:33:09;18.30;99.90
25933;DHT22;13731;51.166;4.474;2023-07-28T00:35:36;18.30;99.90
25933;DHT22;13731;51.166;4.474;2023-07-28T00:38:02;18.50;99.90
25933;DHT22;13731;51.166;4.474;2023-07-28T00:40:28;18.40;99.90
25933;DHT22;13731;51.166;4.474;2023-07-28T00:42:53;18.40;99.90
25933;DHT22;13731;51.166;4.474;2023-07-28T00:45:19;18.40;99.90
25933;DHT22;13731;51.166;4.474;2023-07-28T00:47:46;18.30;99.90
25933;DHT22;13731;51.166;4.474;2023-07-28T00:50:11;18.40;99.90
25933;DHT22;13731;51.166;4.474;2023-07-28T00:52:39;18.40;99.90
25933;DHT22;13731;51.166;4.474;2023-07-28T00:55:05;18.50;99.90
25933;DHT22;13731;51.166;4.474;2023-07-28T00:57:31;18.50;99.90
25933;DHT22;13731;51.166;4.474;2023-07-28T01:00:00;18.40;99.90
25933;DHT22;13731;51.166;4.474;2023-07-28T01:02:26;18.30;99.90
25933;DHT22;13731;51.166;4.474;2023-07-28T01:04:52;18.40;99.90
25933;DHT22;13731;51.166;4.474;2023-07-28T01:07:24;18.30;99.90
25933;DHT22;13731;51.166;4.474;2023-07-28T01:10:00;18.40;99.90
25933;DHT22;13731;51.166;4.474;2023-07-28T01:12:27;18.50;99.90
25933;DHT22;13731;51.166;4.474;2023-07-28T01:14:53;18.40;99.90
25933;DHT22;13731;51.166;4.474;2023-07-28T01:17:19;18.40;99.90
25933;DHT22;13731;51.166;4.474;2023-07-28T01:19:45;18.40;99.90
25933;DHT22;13731;51.166;4.474;2023-07-28T01:27:32;18.20;99.90
25933;DHT22;13731;51.166;4.474;2023-07-28T01:29:59;18.20;99.90
25933;DHT22;13731;51.166;4.474;2023-07-28T01:32:24;18.30;99.90
25933;DHT22;13731;51.166;4.474;2023-07-28T01:34:50;18.30;99.90
25933;DHT22;13731;51.166;4.474;2023-07-28T01:37:16;18.40;99.90
25933;DHT22;13731;51.166;4.474;2023-07-28T01:39:41;18.40;99.90
25933;DHT22;13731;51.166;4.474;2023-07-28T01:42:07;18.40;99.90
25933;DHT22;13731;51.166;4.474;2023-07-28T01:44:33;18.40;99.90
25933;DHT22;13731;51.166;4.474;2023-07-28T01:46:59;18.40;99.90
25933;DHT22;13731;51.166;4.474;2023-07-28T01:49:24;18.50;99.90
25933;DHT22;13731;51.166;4.474;2023-07-28T01:51:50;18.40;99.90
25933;DHT22;13731;51.166;4.474;2023-07-28T01:54:16;18.60;99.90
25933;DHT22;13731;51.166;4.474;2023-07-28T01:56:41;18.50;99.90
25933;DHT22;13731;51.166;4.474;2023-07-28T01:59:07;18.40;99.90
25933;DHT22;13731;51.166;4.474;2023-07-28T02:01:33;18.40;99.90
25933;DHT22;13731;51.166;4.474;2023-07-28T02:03:59;18.40;99.90
25933;DHT22;13731;51.166;4.474;2023-07-28T02:06:25;18.40;99.90
25933;DHT22;13731;51.166;4.474;2023-07-28T02:08:52;18.40;99.90
25933;DHT22;13731;51.166;4.474;2023-07-28T02:11:18;18.40;99.90
25933;DHT22;13731;51.166;4.474;2023-07-28T02:13:44;18.40;99.90
25933;DHT22;13731;51.166;4.474;2023-07-28T02:16:15;18.40;99.90
25933;DHT22;13731;51.166;4.474;2023-07-28T02:18:41;18.40;99.90
25933;DHT22;13731;51.166;4.474;2023-07-28T02:21:10;18.50;99.90
25933;DHT22;13731;51.166;4.474;2023-07-28T02:23:35;18.40;99.90
25933;DHT22;13731;51.166;4.474;2023-07-28T02:26:01;18.50;99.90
25933;DHT22;13731;51.166;4.474;2023-07-28T02:28:27;18.40;99.90
25933;DHT22;13731;51.166;4.474;2023-07-28T02:30:52;18.40;99.90
25933;DHT22;13731;51.166;4.474;2023-07-28T02:33:18;18.40;99.90
25933;DHT22;13731;51.166;4.474;2023-07-28T02:35:44;18.50;99.90
25933;DHT22;13731;51.166;4.474;2023-07-28T02:38:10;18.50;99.90
25933;DHT22;13731;51.166;4.474;2023-07-28T02:40:36;18.50;99.90
25933;DHT22;13731;51.166;4.474;2023-07-28T02:43:01;18.50;99.90
25933;DHT22;13731;51.166;4.474;2023-07-28T02:45:27;18.50;99.90
25933;DHT22;13731;51.166;4.474;2023-07-28T02:47:53;18.60;99.90
25933;DHT22;13731;51.166;4.474;2023-07-28T02:50:18;18.70;99.90
25933;DHT22;13731;51.166;4.474;2023-07-28T02:52:45;18.70;99.90
25933;DHT22;13731;51.166;4.474;2023-07-28T02:55:10;18.60;99.90
25933;DHT22;13731;51.166;4.474;2023-07-28T02:57:36;18.60;99.90
25933;DHT22;13731;51.166;4.474;2023-07-28T03:00:02;18.60;99.90
25933;DHT22;13731;51.166;4.474;2023-07-28T03:02:31;18.50;99.90
25933;DHT22;13731;51.166;4.474;2023-07-28T03:04:57;18.40;99.90
25933;DHT22;13731;51.166;4.474;2023-07-28T03:07:23;18.50;99.90
25933;DHT22;13731;51.166;4.474;2023-07-28T03:09:56;18.60;99.90
25933;DHT22;13731;51.166;4.474;2023-07-28T03:12:22;18.60;99.90
25933;DHT22;13731;51.166;4.474;2023-07-28T03:14:48;18.70;99.90
25933;DHT22;13731;51.166;4.474;2023-07-28T03:17:14;18.70;99.90
25933;DHT22;13731;51.166;4.474;2023-07-28T03:19:40;18.70;99.90
25933;DHT22;13731;51.166;4.474;2023-07-28T03:22:05;18.70;99.90
25933;DHT22;13731;51.166;4.474;2023-07-28T03:24:31;18.70;99.90
25933;DHT22;13731;51.166;4.474;2023-07-28T03:26:57;18.70;99.90
25933;DHT22;13731;51.166;4.474;2023-07-28T03:29:23;18.70;99.90
25933;DHT22;13731;51.166;4.474;2023-07-28T03:31:50;18.60;99.90
25933;DHT22;13731;51.166;4.474;2023-07-28T03:34:17;18.60;99.90
25933;DHT22;13731;51.166;4.474;2023-07-28T03:36:43;18.70;99.90
25933;DHT22;13731;51.166;4.474;2023-07-28T03:39:09;18.70;99.90
25933;DHT22;13731;51.166;4.474;2023-07-28T03:41:35;18.70;99.90
25933;DHT22;13731;51.166;4.474;2023-07-28T03:44:01;18.70;99.90
25933;DHT22;13731;51.166;4.474;2023-07-28T03:46:26;18.80;99.90
25933;DHT22;13731;51.166;4.474;2023-07-28T03:48:52;18.80;99.90
25933;DHT22;13731;51.166;4.474;2023-07-28T03:51:18;18.80;99.90
25933;DHT22;13731;51.166;4.474;2023-07-28T03:53:44;18.80;99.90
25933;DHT22;13731;51.166;4.474;2023-07-28T03:56:10;18.80;99.90
25933;DHT22;13731;51.166;4.474;2023-07-28T03:58:36;18.80;99.90
25933;DHT22;13731;51.166;4.474;2023-07-28T04:01:02;18.80;99.90
25933;DHT22;13731;51.166;4.474;2023-07-28T04:03:28;18.80;99.90
25933;DHT22;13731;51.166;4.474;2023-07-28T04:05:53;18.70;99.90
25933;DHT22;13731;51.166;4.474;2023-07-28T04:08:19;18.60;99.90
25933;DHT22;13731;51.166;4.474;2023-07-28T04:10:45;18.60;99.90
25933;DHT22;13731;51.166;4.474;2023-07-28T04:13:11;18.70;99.90
25933;DHT22;13731;51.166;4.474;2023-07-28T04:15:37;18.80;99.90
25933;DHT22;13731;51.166;4.474;2023-07-28T04:18:02;19.00;99.90
25933;DHT22;13731;51.166;4.474;2023-07-28T04:20:29;19.10;99.90
25933;DHT22;13731;51.166;4.474;2023-07-28T04:22:54;18.90;99.90
25933;DHT22;13731;51.166;4.474;2023-07-28T04:25:20;18.80;99.90
25933;DHT22;13731;51.166;4.474;2023-07-28T04:27:47;18.80;99.90
25933;DHT22;13731;51.166;4.474;2023-07-28T04:30:13;18.80;99.90
25933;DHT22;13731;51.166;4.474;2023-07-28T04:32:39;18.80;99.90
25933;DHT22;13731;51.166;4.474;2023-07-28T04:35:12;18.80;99.90
25933;DHT22;13731;51.166;4.474;2023-07-28T04:37:42;18.80;99.90
25933;DHT22;13731;51.166;4.474;2023-07-28T04:40:09;18.80;99.90
25933;DHT22;13731;51.166;4.474;2023-07-28T04:42:37;18.80;99.90
25933;DHT22;13731;51.166;4.474;2023-07-28T04:45:05;18.70;99.90
25933;DHT22;13731;51.166;4.474;2023-07-28T04:47:31;18.80;99.90
25933;DHT22;13731;51.166;4.474;2023-07-28T04:49:57;18.90;99.90
25933;DHT22;13731;51.166;4.474;2023-07-28T04:52:53;18.90;99.90
25933;DHT22;13731;51.166;4.474;2023-07-28T04:55:35;18.90;99.90
25933;DHT22;13731;51.166;4.474;2023-07-28T04:58:01;18.80;99.90
25933;DHT22;13731;51.166;4.474;2023-07-28T05:00:37;18.80;99.90
25933;DHT22;13731;51.166;4.474;2023-07-28T05:03:03;18.80;99.90
25933;DHT22;13731;51.166;4.474;2023-07-28T05:05:34;19.00;99.90
25933;DHT22;13731;51.166;4.474;2023-07-28T05:08:03;18.90;99.90
25933;DHT22;13731;51.166;4.474;2023-07-28T05:10:29;18.80;99.90
25933;DHT22;13731;51.166;4.474;2023-07-28T05:12:55;18.80;99.90
25933;DHT22;13731;51.166;4.474;2023-07-28T05:15:21;18.80;99.90
25933;DHT22;13731;51.166;4.474;2023-07-28T05:17:49;18.80;99.90
25933;DHT22;13731;51.166;4.474;2023-07-28T05:20:32;18.80;99.90
25933;DHT22;13731;51.166;4.474;2023-07-28T05:23:08;19.00;99.90
25933;DHT22;13731;51.166;4.474;2023-07-28T05:25:34;19.00;99.90
25933;DHT22;13731;51.166;4.474;2023-07-28T05:28:00;19.00;99.90
25933;DHT22;13731;51.166;4.474;2023-07-28T05:30:27;19.10;99.90
25933;DHT22;13731;51.166;4.474;2023-07-28T05:32:54;19.00;99.90
25933;DHT22;13731;51.166;4.474;2023-07-28T05:35:24;19.10;99.90
25933;DHT22;13731;51.166;4.474;2023-07-28T05:37:50;18.90;99.90
25933;DHT22;13731;51.166;4.474;2023-07-28T05:40:15;18.90;99.90
25933;DHT22;13731;51.166;4.474;2023-07-28T05:42:41;19.00;99.90
25933;DHT22;13731;51.166;4.474;2023-07-28T05:45:07;19.10;99.90
25933;DHT22;13731;51.166;4.474;2023-07-28T05:47:34;19.20;99.90
25933;DHT22;13731;51.166;4.474;2023-07-28T05:49:59;19.40;99.90
25933;DHT22;13731;51.166;4.474;2023-07-28T05:52:25;19.40;99.90
25933;DHT22;13731;51.166;4.474;2023-07-28T05:54:51;19.40;99.90
25933;DHT22;13731;51.166;4.474;2023-07-28T05:57:17;19.40;99.90
25933;DHT22;13731;51.166;4.474;2023-07-28T05:59:43;19.40;99.90
25933;DHT22;13731;51.166;4.474;2023-07-28T06:02:09;19.50;99.90
25933;DHT22;13731;51.166;4.474;2023-07-28T06:04:46;19.50;99.90
25933;DHT22;13731;51.166;4.474;2023-07-28T06:07:12;19.40;99.90
25933;DHT22;13731;51.166;4.474;2023-07-28T06:09:38;19.50;99.90
25933;DHT22;13731;51.166;4.474;2023-07-28T06:12:05;19.40;99.90
25933;DHT22;13731;51.166;4.474;2023-07-28T06:14:31;19.50;99.90
25933;DHT22;13731;51.166;4.474;2023-07-28T06:16:57;19.50;99.90
25933;DHT22;13731;51.166;4.474;2023-07-28T06:19:27;19.60;99.90
25933;DHT22;13731;51.166;4.474;2023-07-28T06:21:54;19.70;99.90
25933;DHT22;13731;51.166;4.474;2023-07-28T06:24:20;19.80;99.90
25933;DHT22;13731;51.166;4.474;2023-07-28T06:26:46;19.80;99.90
25933;DHT22;13731;51.166;4.474;2023-07-28T06:29:12;19.80;99.90
25933;DHT22;13731;51.166;4.474;2023-07-28T06:31:38;19.70;99.90
25933;DHT22;13731;51.166;4.474;2023-07-28T06:34:04;19.70;99.90
25933;DHT22;13731;51.166;4.474;2023-07-28T06:36:30;19.70;99.90
25933;DHT22;13731;51.166;4.474;2023-07-28T06:38:56;20.00;99.90
25933;DHT22;13731;51.166;4.474;2023-07-28T06:41:22;20.00;99.90
25933;DHT22;13731;51.166;4.474;2023-07-28T06:43:54;20.00;99.90
25933;DHT22;13731;51.166;4.474;2023-07-28T06:46:19;20.00;99.90
25933;DHT22;13731;51.166;4.474;2023-07-28T06:48:45;20.00;99.90
25933;DHT22;13731;51.166;4.474;2023-07-28T06:51:15;20.20;99.90
25933;DHT22;13731;51.166;4.474;2023-07-28T06:53:41;20.20;99.90
25933;DHT22;13731;51.166;4.474;2023-07-28T06:56:07;20.40;99.90
25933;DHT22;13731;51.166;4.474;2023-07-28T06:58:33;20.30;99.90
25933;DHT22;13731;51.166;4.474;2023-07-28T07:00:58;20.40;99.90
25933;DHT22;13731;51.166;4.474;2023-07-28T07:03:24;20.50;99.90
25933;DHT22;13731;51.166;4.474;2023-07-28T07:05:50;20.70;99.90
25933;DHT22;13731;51.166;4.474;2023-07-28T07:08:16;20.40;99.90
25933;DHT22;13731;51.166;4.474;2023-07-28T07:10:48;20.50;99.90
25933;DHT22;13731;51.166;4.474;2023-07-28T07:13:15;20.50;99.90
25933;DHT22;13731;51.166;4.474;2023-07-28T07:15:41;20.30;99.90
25933;DHT22;13731;51.166;4.474;2023-07-28T07:18:07;20.30;99.90
25933;DHT22;13731;51.166;4.474;2023-07-28T07:20:36;20.40;99.90
25933;DHT22;13731;51.166;4.474;2023-07-28T07:23:02;20.50;99.90
25933;DHT22;13731;51.166;4.474;2023-07-28T07:25:28;20.80;99.90
25933;DHT22;13731;51.166;4.474;2023-07-28T07:27:54;21.00;99.90
25933;DHT22;13731;51.166;4.474;2023-07-28T07:30:21;21.00;99.90
25933;DHT22;13731;51.166;4.474;2023-07-28T07:32:46;21.30;99.90
25933;DHT22;13731;51.166;4.474;2023-07-28T07:35:12;21.70;1.00
25933;DHT22;13731;51.166;4.474;2023-07-28T07:37:38;22.00;1.00
25933;DHT22;13731;51.166;4.474;2023-07-28T07:40:04;21.80;28.00
25933;DHT22;13731;51.166;4.474;2023-07-28T07:42:40;21.70;85.60
25933;DHT22;13731;51.166;4.474;2023-07-28T07:45:07;21.60;1.00
25933;DHT22;13731;51.166;4.474;2023-07-28T07:47:33;21.70;24.40
25933;DHT22;13731;51.166;4.474;2023-07-28T07:49:58;21.90;99.90
25933;DHT22;13731;51.166;4.474;2023-07-28T07:52:26;22.00;99.90
25933;DHT22;13731;51.166;4.474;2023-07-28T07:54:51;21.90;99.90
25933;DHT22;13731;51.166;4.474;2023-07-28T07:57:17;22.20;99.90
25933;DHT22;13731;51.166;4.474;2023-07-28T07:59:43;22.20;99.90
25933;DHT22;13731;51.166;4.474;2023-07-28T08:02:09;22.30;99.90
25933;DHT22;13731;51.166;4.474;2023-07-28T08:04:35;22.60;1.00
25933;DHT22;13731;51.166;4.474;2023-07-28T08:07:02;22.60;10.70
25933;DHT22;13731;51.166;4.474;2023-07-28T08:09:30;22.80;1.00
25933;DHT22;13731;51.166;4.474;2023-07-28T08:11:55;22.90;99.90
25933;DHT22;13731;51.166;4.474;2023-07-28T08:14:21;22.90;99.90
25933;DHT22;13731;51.166;4.474;2023-07-28T08:16:47;23.00;99.90
25933;DHT22;13731;51.166;4.474;2023-07-28T08:19:12;22.60;91.90
25933;DHT22;13731;51.166;4.474;2023-07-28T08:21:38;22.50;1.00
25933;DHT22;13731;51.166;4.474;2023-07-28T08:24:04;22.50;1.00
25933;DHT22;13731;51.166;4.474;2023-07-28T08:26:30;22.70;1.00
25933;DHT22;13731;51.166;4.474;2023-07-28T08:28:56;22.50;99.90
25933;DHT22;13731;51.166;4.474;2023-07-28T08:31:21;22.60;99.90
25933;DHT22;13731;51.166;4.474;2023-07-28T08:33:47;22.60;99.90
25933;DHT22;13731;51.166;4.474;2023-07-28T08:36:15;22.70;99.90
25933;DHT22;13731;51.166;4.474;2023-07-28T08:38:41;23.00;99.90
25933;DHT22;13731;51.166;4.474;2023-07-28T08:41:06;23.20;99.90
25933;DHT22;13731;51.166;4.474;2023-07-28T08:43:32;23.20;99.90
25933;DHT22;13731;51.166;4.474;2023-07-28T08:45:58;23.50;99.90
25933;DHT22;13731;51.166;4.474;2023-07-28T08:48:24;23.50;99.90
25933;DHT22;13731;51.166;4.474;2023-07-28T08:50:50;23.20;60.20
25933;DHT22;13731;51.166;4.474;2023-07-28T08:53:16;23.40;99.90
25933;DHT22;13731;51.166;4.474;2023-07-28T08:55:42;23.70;1.00
25933;DHT22;13731;51.166;4.474;2023-07-28T08:58:15;23.50;1.00
25933;DHT22;13731;51.166;4.474;2023-07-28T09:00:41;23.90;1.00
25933;DHT22;13731;51.166;4.474;2023-07-28T09:03:10;24.00;99.90
25933;DHT22;13731;51.166;4.474;2023-07-28T09:05:36;23.90;99.90
25933;DHT22;13731;51.166;4.474;2023-07-28T09:08:03;23.60;99.90
25933;DHT22;13731;51.166;4.474;2023-07-28T09:10:39;23.70;99.90
25933;DHT22;13731;51.166;4.474;2023-07-28T09:13:08;23.60;99.90
25933;DHT22;13731;51.166;4.474;2023-07-28T09:15:35;23.50;1.00
25933;DHT22;13731;51.166;4.474;2023-07-28T09:18:01;23.60;99.90
25933;DHT22;13731;51.166;4.474;2023-07-28T09:20:33;23.70;1.00
25933;DHT22;13731;51.166;4.474;2023-07-28T09:22:59;24.00;99.90
25933;DHT22;13731;51.166;4.474;2023-07-28T09:25:25;24.00;99.90
25933;DHT22;13731;51.166;4.474;2023-07-28T09:27:53;24.00;99.90
25933;DHT22;13731;51.166;4.474;2023-07-28T09:30:20;24.50;1.00
25933;DHT22;13731;51.166;4.474;2023-07-28T09:32:47;24.60;1.00
25933;DHT22;13731;51.166;4.474;2023-07-28T09:35:13;24.40;1.00
25933;DHT22;13731;51.166;4.474;2023-07-28T09:37:40;24.70;1.00
25933;DHT22;13731;51.166;4.474;2023-07-28T09:40:07;25.30;1.00
25933;DHT22;13731;51.166;4.474;2023-07-28T09:42:37;25.10;1.00
25933;DHT22;13731;51.166;4.474;2023-07-28T09:45:04;24.80;1.00
25933;DHT22;13731;51.166;4.474;2023-07-28T09:47:30;24.60;1.00
25933;DHT22;13731;51.166;4.474;2023-07-28T09:49:58;25.00;1.00
25933;DHT22;13731;51.166;4.474;2023-07-28T09:52:27;25.40;1.00
25933;DHT22;13731;51.166;4.474;2023-07-28T09:54:54;26.20;1.00
25933;DHT22;13731;51.166;4.474;2023-07-28T09:57:22;26.00;99.90
25933;DHT22;13731;51.166;4.474;2023-07-28T09:59:49;26.00;99.90
25933;DHT22;13731;51.166;4.474;2023-07-28T10:02:17;26.30;99.90
25933;DHT22;13731;51.166;4.474;2023-07-28T10:04:43;26.60;99.90
25933;DHT22;13731;51.166;4.474;2023-07-28T10:07:09;26.60;99.90
25933;DHT22;13731;51.166;4.474;2023-07-28T10:09:35;26.20;99.90
25933;DHT22;13731;51.166;4.474;2023-07-28T10:12:03;25.80;99.90
25933;DHT22;13731;51.166;4.474;2023-07-28T10:14:34;25.60;99.90
25933;DHT22;13731;51.166;4.474;2023-07-28T10:17:00;25.60;99.90
25933;DHT22;13731;51.166;4.474;2023-07-28T10:19:31;25.10;99.90
25933;DHT22;13731;51.166;4.474;2023-07-28T10:22:00;24.30;1.00
25933;DHT22;13731;51.166;4.474;2023-07-28T10:27:10;24.10;1.00
25933;DHT22;13731;51.166;4.474;2023-07-28T10:29:39;23.60;99.90
25933;DHT22;13731;51.166;4.474;2023-07-28T10:32:05;23.30;99.90
25933;DHT22;13731;51.166;4.474;2023-07-28T10:34:30;23.10;1.00
25933;DHT22;13731;51.166;4.474;2023-07-28T10:36:57;23.00;16.80
25933;DHT22;13731;51.166;4.474;2023-07-28T10:39:24;22.80;99.90
25933;DHT22;13731;51.166;4.474;2023-07-28T10:44:25;22.90;99.90
25933;DHT22;13731;51.166;4.474;2023-07-28T10:46:51;22.80;1.00
25933;DHT22;13731;51.166;4.474;2023-07-28T10:49:17;22.90;1.00
25933;DHT22;13731;51.166;4.474;2023-07-28T10:51:43;22.70;1.00
25933;DHT22;13731;51.166;4.474;2023-07-28T10:54:08;22.70;1.00
25933;DHT22;13731;51.166;4.474;2023-07-28T10:56:34;22.40;99.90
25933;DHT22;13731;51.166;4.474;2023-07-28T10:59:02;22.30;1.00
25933;DHT22;13731;51.166;4.474;2023-07-28T11:01:35;22.30;1.00
25933;DHT22;13731;51.166;4.474;2023-07-28T11:06:37;22.60;99.90
25933;DHT22;13731;51.166;4.474;2023-07-28T11:09:05;22.90;1.00
25933;DHT22;13731;51.166;4.474;2023-07-28T11:11:31;23.00;99.90
25933;DHT22;13731;51.166;4.474;2023-07-28T11:13:57;23.80;1.00
25933;DHT22;13731;51.166;4.474;2023-07-28T11:16:24;24.00;99.90
25933;DHT22;13731;51.166;4.474;2023-07-28T11:18:51;24.30;1.00
25933;DHT22;13731;51.166;4.474;2023-07-28T11:21:17;24.60;1.00
25933;DHT22;13731;51.166;4.474;2023-07-28T11:23:46;25.40;1.00
25933;DHT22;13731;51.166;4.474;2023-07-28T11:26:11;26.10;99.90
25933;DHT22;13731;51.166;4.474;2023-07-28T11:28:38;25.50;99.90
25933;DHT22;13731;51.166;4.474;2023-07-28T11:31:04;24.90;1.00
25933;DHT22;13731;51.166;4.474;2023-07-28T11:33:29;24.30;1.00
25933;DHT22;13731;51.166;4.474;2023-07-28T11:35:56;23.80;79.40
25933;DHT22;13731;51.166;4.474;2023-07-28T11:38:22;23.30;99.90
25933;DHT22;13731;51.166;4.474;2023-07-28T11:40:49;23.50;99.90
25933;DHT22;13731;51.166;4.474;2023-07-28T11:43:15;23.50;99.90
25933;DHT22;13731;51.166;4.474;2023-07-28T11:45:40;23.90;99.90
25933;DHT22;13731;51.166;4.474;2023-07-28T11:48:06;24.20;36.20
25933;DHT22;13731;51.166;4.474;2023-07-28T11:50:37;24.40;1.00
25933;DHT22;13731;51.166;4.474;2023-07-28T11:53:04;24.60;1.00
25933;DHT22;13731;51.166;4.474;2023-07-28T11:55:29;25.00;1.00
25933;DHT22;13731;51.166;4.474;2023-07-28T11:57:55;25.80;1.00
25933;DHT22;13731;51.166;4.474;2023-07-28T12:00:24;26.10;99.90
25933;DHT22;13731;51.166;4.474;2023-07-28T12:03:10;26.50;99.90
25933;DHT22;13731;51.166;4.474;2023-07-28T12:05:37;26.90;99.90
25933;DHT22;13731;51.166;4.474;2023-07-28T12:08:03;26.90;99.90
25933;DHT22;13731;51.166;4.474;2023-07-28T12:10:29;27.40;99.90
25933;DHT22;13731;51.166;4.474;2023-07-28T12:12:57;27.40;99.90
25933;DHT22;13731;51.166;4.474;2023-07-28T12:15:27;27.80;99.90
25933;DHT22;13731;51.166;4.474;2023-07-28T12:18:27;28.20;99.90
25933;DHT22;13731;51.166;4.474;2023-07-28T12:23:14;26.40;99.90
25933;DHT22;13731;51.166;4.474;2023-07-28T12:25:43;26.00;99.90
25933;DHT22;13731;51.166;4.474;2023-07-28T12:28:09;27.40;99.90
25933;DHT22;13731;51.166;4.474;2023-07-28T12:30:36;28.30;99.90
25933;DHT22;13731;51.166;4.474;2023-07-28T12:33:02;28.10;99.90
25933;DHT22;13731;51.166;4.474;2023-07-28T12:35:30;27.30;99.90
25933;DHT22;13731;51.166;4.474;2023-07-28T12:38:05;26.20;99.90
25933;DHT22;13731;51.166;4.474;2023-07-28T12:40:31;25.60;99.90
25933;DHT22;13731;51.166;4.474;2023-07-28T12:42:57;25.30;99.90
25933;DHT22;13731;51.166;4.474;2023-07-28T12:45:24;25.50;99.90
25933;DHT22;13731;51.166;4.474;2023-07-28T12:47:53;25.30;99.90
25933;DHT22;13731;51.166;4.474;2023-07-28T12:50:22;25.70;99.90
25933;DHT22;13731;51.166;4.474;2023-07-28T12:52:48;25.30;99.90
25933;DHT22;13731;51.166;4.474;2023-07-28T12:55:14;25.00;99.90
25933;DHT22;13731;51.166;4.474;2023-07-28T12:57:40;24.80;99.90
25933;DHT22;13731;51.166;4.474;2023-07-28T13:00:06;25.10;99.90
25933;DHT22;13731;51.166;4.474;2023-07-28T13:02:39;25.00;99.90
25933;DHT22;13731;51.166;4.474;2023-07-28T13:05:05;25.00;99.90
25933;DHT22;13731;51.166;4.474;2023-07-28T13:07:31;25.30;99.90
25933;DHT22;13731;51.166;4.474;2023-07-28T13:09:56;25.40;99.90
25933;DHT22;13731;51.166;4.474;2023-07-28T13:12:22;25.60;99.90
25933;DHT22;13731;51.166;4.474;2023-07-28T13:14:48;25.50;99.90
25933;DHT22;13731;51.166;4.474;2023-07-28T13:17:14;25.50;99.90
25933;DHT22;13731;51.166;4.474;2023-07-28T13:19:40;25.50;99.90
25933;DHT22;13731;51.166;4.474;2023-07-28T13:22:06;25.60;99.90
25933;DHT22;13731;51.166;4.474;2023-07-28T13:24:32;25.30;99.90
25933;DHT22;13731;51.166;4.474;2023-07-28T13:26:58;25.00;99.90
25933;DHT22;13731;51.166;4.474;2023-07-28T13:29:24;25.00;99.90
25933;DHT22;13731;51.166;4.474;2023-07-28T13:31:59;25.20;99.90
25933;DHT22;13731;51.166;4.474;2023-07-28T13:34:26;25.00;99.90
25933;DHT22;13731;51.166;4.474;2023-07-28T13:36:55;25.10;99.90
25933;DHT22;13731;51.166;4.474;2023-07-28T13:39:22;25.50;99.90
25933;DHT22;13731;51.166;4.474;2023-07-28T13:41:47;26.00;99.90
25933;DHT22;13731;51.166;4.474;2023-07-28T13:44:13;26.40;99.90
25933;DHT22;13731;51.166;4.474;2023-07-28T13:46:39;26.40;99.90
25933;DHT22;13731;51.166;4.474;2023-07-28T13:49:05;26.50;99.90
25933;DHT22;13731;51.166;4.474;2023-07-28T13:51:31;27.20;99.90
25933;DHT22;13731;51.166;4.474;2023-07-28T13:53:56;27.90;99.90
25933;DHT22;13731;51.166;4.474;2023-07-28T13:56:22;28.50;88.00
25933;DHT22;13731;51.166;4.474;2023-07-28T13:58:48;29.00;51.20
25933;DHT22;13731;51.166;4.474;2023-07-28T14:01:13;29.60;23.90
25933;DHT22;13731;51.166;4.474;2023-07-28T14:03:39;29.40;13.90
25933;DHT22;13731;51.166;4.474;2023-07-28T14:06:05;30.00;5.40
25933;DHT22;13731;51.166;4.474;2023-07-28T14:08:31;29.90;1.00
25933;DHT22;13731;51.166;4.474;2023-07-28T14:10:56;28.70;1.00
25933;DHT22;13731;51.166;4.474;2023-07-28T14:13:22;27.80;21.10
25933;DHT22;13731;51.166;4.474;2023-07-28T14:15:49;27.20;27.90
25933;DHT22;13731;51.166;4.474;2023-07-28T14:18:15;27.20;38.70
25933;DHT22;13731;51.166;4.474;2023-07-28T14:20:41;27.70;33.20
25933;DHT22;13731;51.166;4.474;2023-07-28T14:23:23;27.80;31.30
25933;DHT22;13731;51.166;4.474;2023-07-28T14:25:49;27.40;35.70
25933;DHT22;13731;51.166;4.474;2023-07-28T14:28:15;27.00;52.20
25933;DHT22;13731;51.166;4.474;2023-07-28T14:30:41;26.10;60.70
25933;DHT22;13731;51.166;4.474;2023-07-28T14:33:14;25.40;99.90
25933;DHT22;13731;51.166;4.474;2023-07-28T14:35:41;25.00;99.90
25933;DHT22;13731;51.166;4.474;2023-07-28T14:38:07;24.50;99.90
25933;DHT22;13731;51.166;4.474;2023-07-28T14:40:32;24.30;99.90
25933;DHT22;13731;51.166;4.474;2023-07-28T14:42:59;24.40;99.90
25933;DHT22;13731;51.166;4.474;2023-07-28T14:45:28;24.50;99.90
25933;DHT22;13731;51.166;4.474;2023-07-28T14:47:54;24.90;99.90
25933;DHT22;13731;51.166;4.474;2023-07-28T14:50:20;25.20;99.90
25933;DHT22;13731;51.166;4.474;2023-07-28T14:52:46;25.90;99.90
25933;DHT22;13731;51.166;4.474;2023-07-28T14:55:12;28.30;99.90
25933;DHT22;13731;51.166;4.474;2023-07-28T14:57:37;30.40;30.00
25933;DHT22;13731;51.166;4.474;2023-07-28T15:00:03;31.20;1.00
25933;DHT22;13731;51.166;4.474;2023-07-28T15:02:34;31.80;1.00
25933;DHT22;13731;51.166;4.474;2023-07-28T15:05:01;31.60;1.00
25933;DHT22;13731;51.166;4.474;2023-07-28T15:07:27;30.40;1.00
25933;DHT22;13731;51.166;4.474;2023-07-28T15:09:54;30.90;1.00
25933;DHT22;13731;51.166;4.474;2023-07-28T15:12:23;31.50;1.00
25933;DHT22;13731;51.166;4.474;2023-07-28T15:14:49;33.30;1.00
25933;DHT22;13731;51.166;4.474;2023-07-28T15:17:15;33.30;1.00
25933;DHT22;13731;51.166;4.474;2023-07-28T15:19:40;32.60;1.00
25933;DHT22;13731;51.166;4.474;2023-07-28T15:22:06;33.60;1.00
25933;DHT22;13731;51.166;4.474;2023-07-28T15:24:32;35.30;1.00
25933;DHT22;13731;51.166;4.474;2023-07-28T15:26:58;35.20;1.00
25933;DHT22;13731;51.166;4.474;2023-07-28T15:29:23;34.30;1.00
25933;DHT22;13731;51.166;4.474;2023-07-28T15:31:49;34.30;1.00
25933;DHT22;13731;51.166;4.474;2023-07-28T15:34:16;34.70;1.00
25933;DHT22;13731;51.166;4.474;2023-07-28T15:36:41;34.40;1.00
25933;DHT22;13731;51.166;4.474;2023-07-28T15:39:07;32.70;1.00
25933;DHT22;13731;51.166;4.474;2023-07-28T15:41:35;33.60;1.00
25933;DHT22;13731;51.166;4.474;2023-07-28T15:44:01;34.60;1.00
25933;DHT22;13731;51.166;4.474;2023-07-28T15:46:27;35.50;1.00